Pelham, NH (03076)

8:30 PM EDT on August 26, 2016 (GMT -0400)
Independence Dr | | Change Station

Elev 180 ft 42.74 °N, 71.34 °W | Updated 8 seconds ago

Clear
Clear
77.3 °F
Feels Like 79 °F
N
0.0
Wind Variable Wind from WNW
Gusts 0.0 mph

Today
High -- | Low -- °F
--% Chance of Precip.
Yesterday
High -- | Low -- °F
Precip. -- in
Pressure 30.01 in
Visibility 10.0 miles
Clouds Clear
Heat Index 79 °F
Dew Point 69 °F
Humidity 75%
Rainfall 0.00 in
Snow Depth Not available.
6:04 AM 7:28 PM
Waning Crescent, 30% visible
METAR KASH 262356Z 00000KT 10SM CLR 26/19 A2999 RMK AO2 SLP163 T02560194 10317 20256 53012
Pressure 30.01 in
Visibility 10.0 miles
Clouds Clear
Heat Index 79 °F
Dew Point 69 °F
Humidity 75%
Rainfall 0.00 in
Snow Depth Not available.
6:04 AM 7:28 PM
Waning Crescent, 30% visible
METAR KASH 262356Z 00000KT 10SM CLR 26/19 A2999 RMK AO2 SLP163 T02560194 10317 20256 53012

10-Day Weather Forecast

Almanac

Astronomy

Aug. 26, 2016 Rise Set
Actual Time
Civil Twilight
Nautical Twilight
Astronomical Twilight
Moon
Length of Visible Light
Length of Day
Tomorrow will be .
, % of the Moon is Illuminated

Today's Extremes

State Highs State Lows

Community

WunderPhotos

Upload Photos

1,935,257 photos uploaded!

WunderBlog® & News

Nearby

Air Quality

  Air Quality AQ Index Pollutant
Not available.

Snow Depth

Station Depth Elevation

Earthquake Activity

City Distance Mag. Time & Date
Minimum magnitude displayed is 2.5.

Coastal Water Temperatures

Place Temperature

Stations

Nearby Weather Stations

Station Location Temp. Windchill Dew Point Humidity Wind Precip. Elev Updated Type
                   

Watches & Warnings

There are currently no watches in effect.